sensor_id;sensor_type;location;lat;lon;timestamp;pressure;altitude;pressure_sealevel;temperature;humidity
49342;BME280;35210;41.606;-87.602;2023-03-04T00:01:01;97780.38;;;3.59;98.76
49342;BME280;35210;41.606;-87.602;2023-03-04T00:03:29;97792.03;;;3.67;98.92
49342;BME280;35210;41.606;-87.602;2023-03-04T00:05:57;97796.91;;;3.71;98.65
49342;BME280;35210;41.606;-87.602;2023-03-04T00:08:25;97804.34;;;3.76;98.15
49342;BME280;35210;41.606;-87.602;2023-03-04T00:10:53;97802.56;;;3.76;98.13
49342;BME280;35210;41.606;-87.602;2023-03-04T00:13:22;97808.41;;;3.80;98.17
49342;BME280;35210;41.606;-87.602;2023-03-04T00:15:50;97810.66;;;3.84;97.94
49342;BME280;35210;41.606;-87.602;2023-03-04T00:18:20;97822.66;;;3.87;98.05
49342;BME280;35210;41.606;-87.602;2023-03-04T00:20:48;97826.44;;;3.83;97.16
49342;BME280;35210;41.606;-87.602;2023-03-04T00:23:16;97820.28;;;3.84;96.91
49342;BME280;35210;41.606;-87.602;2023-03-04T00:25:44;97812.09;;;3.88;97.48
49342;BME280;35210;41.606;-87.602;2023-03-04T00:28:12;97819.44;;;3.83;96.80
49342;BME280;35210;41.606;-87.602;2023-03-04T00:30:40;97809.94;;;3.82;97.17
49342;BME280;35210;41.606;-87.602;2023-03-04T00:33:08;97815.16;;;3.82;97.94
49342;BME280;35210;41.606;-87.602;2023-03-04T00:35:38;97814.81;;;3.87;96.86
49342;BME280;35210;41.606;-87.602;2023-03-04T00:38:06;97824.56;;;3.85;96.88
49342;BME280;35210;41.606;-87.602;2023-03-04T00:40:34;97846.53;;;3.93;96.67
49342;BME280;35210;41.606;-87.602;2023-03-04T00:43:02;97843.31;;;3.90;96.75
49342;BME280;35210;41.606;-87.602;2023-03-04T00:45:31;97839.88;;;3.89;96.93
49342;BME280;35210;41.606;-87.602;2023-03-04T00:48:00;97867.53;;;3.92;96.62
49342;BME280;35210;41.606;-87.602;2023-03-04T00:50:28;97877.88;;;3.93;95.86
49342;BME280;35210;41.606;-87.602;2023-03-04T00:52:57;97874.53;;;3.91;95.72
49342;BME280;35210;41.606;-87.602;2023-03-04T00:55:26;97874.31;;;3.94;95.78
49342;BME280;35210;41.606;-87.602;2023-03-04T00:57:54;97883.81;;;3.95;96.12
49342;BME280;35210;41.606;-87.602;2023-03-04T01:00:23;97892.81;;;3.91;96.22
49342;BME280;35210;41.606;-87.602;2023-03-04T01:02:51;97890.94;;;3.93;95.63
49342;BME280;35210;41.606;-87.602;2023-03-04T01:05:19;97892.09;;;3.89;96.09
49342;BME280;35210;41.606;-87.602;2023-03-04T01:07:47;97908.72;;;3.88;96.06
49342;BME280;35210;41.606;-87.602;2023-03-04T01:10:18;97911.56;;;3.85;95.36
49342;BME280;35210;41.606;-87.602;2023-03-04T01:12:46;97924.59;;;3.85;95.54
49342;BME280;35210;41.606;-87.602;2023-03-04T01:15:15;97943.72;;;3.86;95.74
49342;BME280;35210;41.606;-87.602;2023-03-04T01:17:43;97957.88;;;3.94;95.67
49342;BME280;35210;41.606;-87.602;2023-03-04T01:20:12;97967.28;;;3.97;95.72
49342;BME280;35210;41.606;-87.602;2023-03-04T01:22:40;97969.50;;;3.90;94.42
49342;BME280;35210;41.606;-87.602;2023-03-04T01:25:09;97979.38;;;3.98;94.82
49342;BME280;35210;41.606;-87.602;2023-03-04T01:27:38;97988.78;;;4.01;94.52
49342;BME280;35210;41.606;-87.602;2023-03-04T01:30:08;97999.22;;;4.01;94.38
49342;BME280;35210;41.606;-87.602;2023-03-04T01:32:37;98017.16;;;4.05;94.01
49342;BME280;35210;41.606;-87.602;2023-03-04T01:35:07;98020.72;;;4.04;93.28
49342;BME280;35210;41.606;-87.602;2023-03-04T01:37:36;98018.59;;;4.09;93.62
49342;BME280;35210;41.606;-87.602;2023-03-04T01:40:05;98027.78;;;4.15;92.63
49342;BME280;35210;41.606;-87.602;2023-03-04T01:42:35;98032.78;;;4.18;92.63
49342;BME280;35210;41.606;-87.602;2023-03-04T01:45:06;98047.63;;;4.17;92.52
49342;BME280;35210;41.606;-87.602;2023-03-04T01:47:37;98054.50;;;4.18;90.95
49342;BME280;35210;41.606;-87.602;2023-03-04T01:50:12;98071.03;;;4.19;91.60
49342;BME280;35210;41.606;-87.602;2023-03-04T01:52:43;98076.84;;;4.22;91.25
49342;BME280;35210;41.606;-87.602;2023-03-04T01:55:15;98098.38;;;4.26;91.84
49342;BME280;35210;41.606;-87.602;2023-03-04T01:57:45;98116.34;;;4.31;91.65
49342;BME280;35210;41.606;-87.602;2023-03-04T02:00:22;98124.44;;;4.39;90.98
49342;BME280;35210;41.606;-87.602;2023-03-04T02:02:53;98124.22;;;4.42;91.02
49342;BME280;35210;41.606;-87.602;2023-03-04T02:05:22;98139.53;;;4.46;90.92
49342;BME280;35210;41.606;-87.602;2023-03-04T02:07:51;98136.25;;;4.55;90.53
49342;BME280;35210;41.606;-87.602;2023-03-04T02:10:20;98139.59;;;4.57;90.89
49342;BME280;35210;41.606;-87.602;2023-03-04T02:12:48;98144.03;;;4.68;90.11
49342;BME280;35210;41.606;-87.602;2023-03-04T02:15:17;98152.72;;;4.69;89.73
49342;BME280;35210;41.606;-87.602;2023-03-04T02:17:46;98169.09;;;4.59;89.49
49342;BME280;35210;41.606;-87.602;2023-03-04T02:20:32;98181.47;;;4.69;89.58
49342;BME280;35210;41.606;-87.602;2023-03-04T02:23:08;98186.81;;;4.67;89.53
49342;BME280;35210;41.606;-87.602;2023-03-04T02:25:42;98205.63;;;4.72;89.93
49342;BME280;35210;41.606;-87.602;2023-03-04T02:28:13;98207.31;;;4.73;90.33
49342;BME280;35210;41.606;-87.602;2023-03-04T02:30:42;98210.53;;;4.77;89.55
49342;BME280;35210;41.606;-87.602;2023-03-04T02:33:14;98222.44;;;4.81;88.47
49342;BME280;35210;41.606;-87.602;2023-03-04T02:35:45;98228.63;;;4.80;89.29
49342;BME280;35210;41.606;-87.602;2023-03-04T02:38:14;98236.25;;;4.83;88.78
49342;BME280;35210;41.606;-87.602;2023-03-04T02:40:47;98235.00;;;4.76;89.20
49342;BME280;35210;41.606;-87.602;2023-03-04T02:43:19;98253.66;;;4.71;89.10
49342;BME280;35210;41.606;-87.602;2023-03-04T02:45:48;98265.66;;;4.74;89.45
49342;BME280;35210;41.606;-87.602;2023-03-04T02:48:19;98277.06;;;4.73;89.23
49342;BME280;35210;41.606;-87.602;2023-03-04T02:50:50;98283.97;;;4.74;89.66
49342;BME280;35210;41.606;-87.602;2023-03-04T02:53:19;98292.31;;;4.79;88.36
49342;BME280;35210;41.606;-87.602;2023-03-04T02:55:48;98290.94;;;4.86;87.58
49342;BME280;35210;41.606;-87.602;2023-03-04T02:58:18;98298.28;;;4.81;88.10
49342;BME280;35210;41.606;-87.602;2023-03-04T03:00:46;98300.28;;;4.77;87.87
49342;BME280;35210;41.606;-87.602;2023-03-04T03:03:14;98292.31;;;4.79;87.94
49342;BME280;35210;41.606;-87.602;2023-03-04T03:05:50;98295.13;;;4.88;87.32
49342;BME280;35210;41.606;-87.602;2023-03-04T03:08:20;98290.94;;;4.86;86.77
49342;BME280;35210;41.606;-87.602;2023-03-04T03:10:49;98292.94;;;4.82;87.11
49342;BME280;35210;41.606;-87.602;2023-03-04T03:13:18;98290.44;;;4.81;87.57
49342;BME280;35210;41.606;-87.602;2023-03-04T03:15:46;98303.28;;;4.84;87.32
49342;BME280;35210;41.606;-87.602;2023-03-04T03:18:15;98320.25;;;4.78;87.30
49342;BME280;35210;41.606;-87.602;2023-03-04T03:20:43;98330.31;;;4.72;87.27
49342;BME280;35210;41.606;-87.602;2023-03-04T03:23:11;98333.56;;;4.75;87.26
49342;BME280;35210;41.606;-87.602;2023-03-04T03:25:44;98343.78;;;4.78;88.14
49342;BME280;35210;41.606;-87.602;2023-03-04T03:28:12;98350.38;;;4.84;87.27
49342;BME280;35210;41.606;-87.602;2023-03-04T03:30:45;98346.81;;;4.85;86.74
49342;BME280;35210;41.606;-87.602;2023-03-04T03:33:13;98364.19;;;4.86;87.43
49342;BME280;35210;41.606;-87.602;2023-03-04T03:35:41;98368.34;;;4.88;87.00
49342;BME280;35210;41.606;-87.602;2023-03-04T03:38:12;98375.88;;;4.93;86.14
49342;BME280;35210;41.606;-87.602;2023-03-04T03:40:54;98378.94;;;4.87;86.27
49342;BME280;35210;41.606;-87.602;2023-03-04T03:43:22;98383.53;;;4.83;86.18
49342;BME280;35210;41.606;-87.602;2023-03-04T03:45:51;98390.56;;;4.83;86.93
49342;BME280;35210;41.606;-87.602;2023-03-04T03:48:20;98392.88;;;4.75;86.68
49342;BME280;35210;41.606;-87.602;2023-03-04T03:50:48;98395.25;;;4.78;86.91
49342;BME280;35210;41.606;-87.602;2023-03-04T03:53:16;98392.31;;;4.82;86.07
49342;BME280;35210;41.606;-87.602;2023-03-04T03:55:54;98402.28;;;4.77;85.61
49342;BME280;35210;41.606;-87.602;2023-03-04T03:58:24;98407.94;;;4.71;86.07
49342;BME280;35210;41.606;-87.602;2023-03-04T04:00:53;98419.22;;;4.72;86.57
49342;BME280;35210;41.606;-87.602;2023-03-04T04:03:21;98421.00;;;4.71;86.53
49342;BME280;35210;41.606;-87.602;2023-03-04T04:05:49;98425.28;;;4.72;87.23
49342;BME280;35210;41.606;-87.602;2023-03-04T04:08:18;98433.25;;;4.71;86.91
49342;BME280;35210;41.606;-87.602;2023-03-04T04:10:46;98439.31;;;4.71;86.96
49342;BME280;35210;41.606;-87.602;2023-03-04T04:13:15;98440.56;;;4.78;87.16
49342;BME280;35210;41.606;-87.602;2023-03-04T04:15:51;98442.97;;;4.81;86.83
49342;BME280;35210;41.606;-87.602;2023-03-04T04:18:20;98447.56;;;4.78;86.13
49342;BME280;35210;41.606;-87.602;2023-03-04T04:20:50;98450.59;;;4.72;84.83
49342;BME280;35210;41.606;-87.602;2023-03-04T04:23:19;98448.94;;;4.71;85.13
49342;BME280;35210;41.606;-87.602;2023-03-04T04:25:47;98466.09;;;4.75;85.00
49342;BME280;35210;41.606;-87.602;2023-03-04T04:28:15;98472.25;;;4.74;84.72
49342;BME280;35210;41.606;-87.602;2023-03-04T04:30:43;98475.09;;;4.71;85.20
49342;BME280;35210;41.606;-87.602;2023-03-04T04:33:11;98479.38;;;4.72;85.10
49342;BME280;35210;41.606;-87.602;2023-03-04T04:35:40;98482.94;;;4.71;85.27
49342;BME280;35210;41.606;-87.602;2023-03-04T04:38:09;98486.59;;;4.68;84.67
49342;BME280;35210;41.606;-87.602;2023-03-04T04:40:37;98485.53;;;4.71;84.80
49342;BME280;35210;41.606;-87.602;2023-03-04T04:43:05;98488.38;;;4.68;85.25
49342;BME280;35210;41.606;-87.602;2023-03-04T04:45:33;98481.25;;;4.70;84.92
49342;BME280;35210;41.606;-87.602;2023-03-04T04:48:03;98492.44;;;4.72;84.72
49342;BME280;35210;41.606;-87.602;2023-03-04T04:50:31;98494.97;;;4.73;85.21
49342;BME280;35210;41.606;-87.602;2023-03-04T04:53:01;98500.09;;;4.75;85.25
49342;BME280;35210;41.606;-87.602;2023-03-04T04:55:29;98503.97;;;4.82;84.43
49342;BME280;35210;41.606;-87.602;2023-03-04T04:57:57;98508.25;;;4.83;84.47
49342;BME280;35210;41.606;-87.602;2023-03-04T05:00:25;98511.19;;;4.91;83.39
49342;BME280;35210;41.606;-87.602;2023-03-04T05:02:53;98510.03;;;4.82;83.69
49342;BME280;35210;41.606;-87.602;2023-03-04T05:05:21;98519.84;;;4.79;83.65
49342;BME280;35210;41.606;-87.602;2023-03-04T05:07:49;98532.00;;;4.80;83.67
49342;BME280;35210;41.606;-87.602;2023-03-04T05:10:19;98548.94;;;4.87;83.54
49342;BME280;35210;41.606;-87.602;2023-03-04T05:12:47;98559.72;;;4.82;83.75
49342;BME280;35210;41.606;-87.602;2023-03-04T05:15:16;98565.06;;;4.81;84.00
49342;BME280;35210;41.606;-87.602;2023-03-04T05:17:44;98576.25;;;4.83;83.66
49342;BME280;35210;41.606;-87.602;2023-03-04T05:20:12;98585.97;;;4.81;84.30
49342;BME280;35210;41.606;-87.602;2023-03-04T05:22:40;98598.31;;;4.79;83.75
49342;BME280;35210;41.606;-87.602;2023-03-04T05:25:09;98608.97;;;4.76;84.45
49342;BME280;35210;41.606;-87.602;2023-03-04T05:27:38;98609.63;;;4.79;84.20
49342;BME280;35210;41.606;-87.602;2023-03-04T05:30:08;98615.88;;;4.77;84.33
49342;BME280;35210;41.606;-87.602;2023-03-04T05:32:36;98618.50;;;4.77;84.83
49342;BME280;35210;41.606;-87.602;2023-03-04T05:35:05;98629.91;;;4.76;83.99
49342;BME280;35210;41.606;-87.602;2023-03-04T05:37:33;98630.75;;;4.76;83.98
49342;BME280;35210;41.606;-87.602;2023-03-04T05:40:01;98631.78;;;4.74;84.21
49342;BME280;35210;41.606;-87.602;2023-03-04T05:42:30;98638.69;;;4.75;83.74
49342;BME280;35210;41.606;-87.602;2023-03-04T05:44:59;98634.41;;;4.74;83.85
49342;BME280;35210;41.606;-87.602;2023-03-04T05:47:28;98630.94;;;4.73;83.74
49342;BME280;35210;41.606;-87.602;2023-03-04T05:49:56;98637.00;;;4.74;84.50
49342;BME280;35210;41.606;-87.602;2023-03-04T05:52:24;98636.81;;;4.77;83.79
49342;BME280;35210;41.606;-87.602;2023-03-04T05:54:53;98650.94;;;4.74;83.39
49342;BME280;35210;41.606;-87.602;2023-03-04T05:57:21;98662.22;;;4.75;83.57
49342;BME280;35210;41.606;-87.602;2023-03-04T05:59:49;98666.91;;;4.70;83.74
49342;BME280;35210;41.606;-87.602;2023-03-04T06:02:19;98672.06;;;4.71;83.19
49342;BME280;35210;41.606;-87.602;2023-03-04T06:04:47;98674.97;;;4.67;83.20
49342;BME280;35210;41.606;-87.602;2023-03-04T06:07:24;98696.09;;;4.63;83.64
49342;BME280;35210;41.606;-87.602;2023-03-04T06:09:52;98704.88;;;4.62;83.65
49342;BME280;35210;41.606;-87.602;2023-03-04T06:12:20;98705.59;;;4.65;82.96
49342;BME280;35210;41.606;-87.602;2023-03-04T06:14:48;98705.91;;;4.60;82.78
49342;BME280;35210;41.606;-87.602;2023-03-04T06:17:18;98702.66;;;4.56;83.11
49342;BME280;35210;41.606;-87.602;2023-03-04T06:19:46;98715.81;;;4.55;83.23
49342;BME280;35210;41.606;-87.602;2023-03-04T06:22:14;98729.09;;;4.52;82.74
49342;BME280;35210;41.606;-87.602;2023-03-04T06:24:46;98727.69;;;4.46;82.32
49342;BME280;35210;41.606;-87.602;2023-03-04T06:27:16;98719.34;;;4.41;82.97
49342;BME280;35210;41.606;-87.602;2023-03-04T06:29:44;98715.34;;;4.36;82.33
49342;BME280;35210;41.606;-87.602;2023-03-04T06:32:12;98722.13;;;4.38;82.06
49342;BME280;35210;41.606;-87.602;2023-03-04T06:34:44;98729.03;;;4.39;82.77
49342;BME280;35210;41.606;-87.602;2023-03-04T06:37:13;98744.56;;;4.28;82.21
49342;BME280;35210;41.606;-87.602;2023-03-04T06:39:41;98746.53;;;4.24;83.23
49342;BME280;35210;41.606;-87.602;2023-03-04T06:42:09;98752.03;;;4.20;82.99
49342;BME280;35210;41.606;-87.602;2023-03-04T06:44:37;98759.78;;;4.21;83.43
49342;BME280;35210;41.606;-87.602;2023-03-04T06:47:05;98770.13;;;4.23;83.04
49342;BME280;35210;41.606;-87.602;2023-03-04T06:49:33;98763.22;;;4.22;83.31
49342;BME280;35210;41.606;-87.602;2023-03-04T06:52:03;98769.19;;;4.24;84.04
49342;BME280;35210;41.606;-87.602;2023-03-04T06:54:31;98767.63;;;4.21;83.17
49342;BME280;35210;41.606;-87.602;2023-03-04T06:56:59;98776.66;;;4.16;83.92
49342;BME280;35210;41.606;-87.602;2023-03-04T06:59:27;98778.34;;;4.17;82.78
49342;BME280;35210;41.606;-87.602;2023-03-04T07:01:56;98775.94;;;4.14;83.62
49342;BME280;35210;41.606;-87.602;2023-03-04T07:04:24;98779.84;;;4.07;83.98
49342;BME280;35210;41.606;-87.602;2023-03-04T07:06:52;98784.22;;;4.06;84.29
49342;BME280;35210;41.606;-87.602;2023-03-04T07:09:22;98799.81;;;4.08;84.17
49342;BME280;35210;41.606;-87.602;2023-03-04T07:11:50;98811.28;;;4.05;83.16
49342;BME280;35210;41.606;-87.602;2023-03-04T07:14:18;98810.53;;;4.03;83.97
49342;BME280;35210;41.606;-87.602;2023-03-04T07:16:46;98799.63;;;3.96;84.69
49342;BME280;35210;41.606;-87.602;2023-03-04T07:19:14;98795.31;;;3.95;84.56
49342;BME280;35210;41.606;-87.602;2023-03-04T07:21:42;98802.41;;;3.93;84.29
49342;BME280;35210;41.606;-87.602;2023-03-04T07:24:12;98806.53;;;3.97;84.71
49342;BME280;35210;41.606;-87.602;2023-03-04T07:26:41;98817.53;;;4.03;84.15
49342;BME280;35210;41.606;-87.602;2023-03-04T07:29:09;98828.16;;;4.00;85.08
49342;BME280;35210;41.606;-87.602;2023-03-04T07:31:37;98827.97;;;4.03;84.58
49342;BME280;35210;41.606;-87.602;2023-03-04T07:34:07;98831.53;;;4.02;84.01
49342;BME280;35210;41.606;-87.602;2023-03-04T07:36:36;98837.88;;;3.97;84.49
49342;BME280;35210;41.606;-87.602;2023-03-04T07:39:05;98849.06;;;4.00;84.25
49342;BME280;35210;41.606;-87.602;2023-03-04T07:41:34;98843.00;;;3.99;84.14
49342;BME280;35210;41.606;-87.602;2023-03-04T07:44:04;98859.69;;;3.96;84.33
49342;BME280;35210;41.606;-87.602;2023-03-04T07:46:33;98858.00;;;3.95;83.56
49342;BME280;35210;41.606;-87.602;2023-03-04T07:49:01;98865.09;;;3.93;83.94
49342;BME280;35210;41.606;-87.602;2023-03-04T07:51:29;98861.75;;;3.91;83.54
49342;BME280;35210;41.606;-87.602;2023-03-04T07:53:59;98859.88;;;3.93;83.76
49342;BME280;35210;41.606;-87.602;2023-03-04T07:56:30;98863.59;;;3.89;84.07
49342;BME280;35210;41.606;-87.602;2023-03-04T07:58:59;98864.44;;;3.90;83.93
49342;BME280;35210;41.606;-87.602;2023-03-04T08:01:30;98864.44;;;3.90;84.21
49342;BME280;35210;41.606;-87.602;2023-03-04T08:03:59;98867.81;;;3.92;84.58
49342;BME280;35210;41.606;-87.602;2023-03-04T08:06:28;98872.19;;;3.91;84.08
49342;BME280;35210;41.606;-87.602;2023-03-04T08:08:57;98880.78;;;3.93;84.27
49342;BME280;35210;41.606;-87.602;2023-03-04T08:11:26;98892.16;;;3.92;84.21
49342;BME280;35210;41.606;-87.602;2023-03-04T08:13:55;98900.81;;;3.93;83.82
49342;BME280;35210;41.606;-87.602;2023-03-04T08:16:23;98908.75;;;3.91;83.53
49342;BME280;35210;41.606;-87.602;2023-03-04T08:18:56;98909.69;;;3.90;83.70
49342;BME280;35210;41.606;-87.602;2023-03-04T08:21:25;98921.06;;;3.89;83.50
49342;BME280;35210;41.606;-87.602;2023-03-04T08:23:55;98907.44;;;3.84;83.90
49342;BME280;35210;41.606;-87.602;2023-03-04T08:26:25;98912.66;;;3.84;83.98
49342;BME280;35210;41.606;-87.602;2023-03-04T08:28:55;98909.09;;;3.85;83.88
49342;BME280;35210;41.606;-87.602;2023-03-04T08:31:23;98908.44;;;3.82;84.35
49342;BME280;35210;41.606;-87.602;2023-03-04T08:33:53;98902.38;;;3.81;83.65
49342;BME280;35210;41.606;-87.602;2023-03-04T08:36:21;98887.81;;;3.77;83.35
49342;BME280;35210;41.606;-87.602;2023-03-04T08:38:49;98889.97;;;3.71;82.66
49342;BME280;35210;41.606;-87.602;2023-03-04T08:41:17;98893.78;;;3.65;83.33
49342;BME280;35210;41.606;-87.602;2023-03-04T08:43:46;98906.91;;;3.63;83.77
49342;BME280;35210;41.606;-87.602;2023-03-04T08:46:14;98899.19;;;3.62;84.31
49342;BME280;35210;41.606;-87.602;2023-03-04T08:48:42;98903.47;;;3.63;84.46
49342;BME280;35210;41.606;-87.602;2023-03-04T08:51:13;98907.94;;;3.61;84.20
49342;BME280;35210;41.606;-87.602;2023-03-04T08:53:42;98914.09;;;3.60;84.58
49342;BME280;35210;41.606;-87.602;2023-03-04T08:56:11;98923.69;;;3.59;84.10
49342;BME280;35210;41.606;-87.602;2023-03-04T08:58:40;98929.91;;;3.57;83.69
49342;BME280;35210;41.606;-87.602;2023-03-04T09:01:09;98931.78;;;3.55;83.50
49342;BME280;35210;41.606;-87.602;2023-03-04T09:03:38;98933.63;;;3.53;84.16
49342;BME280;35210;41.606;-87.602;2023-03-04T09:06:07;98936.16;;;3.54;84.31
49342;BME280;35210;41.606;-87.602;2023-03-04T09:08:36;98932.63;;;3.55;84.45
49342;BME280;35210;41.606;-87.602;2023-03-04T09:11:05;98927.22;;;3.58;83.93
49342;BME280;35210;41.606;-87.602;2023-03-04T09:13:33;98945.25;;;3.63;84.69
49342;BME280;35210;41.606;-87.602;2023-03-04T09:16:02;98946.25;;;3.60;84.68
49342;BME280;35210;41.606;-87.602;2023-03-04T09:18:30;98950.63;;;3.60;84.20
49342;BME280;35210;41.606;-87.602;2023-03-04T09:20:58;98968.16;;;3.58;84.14
49342;BME280;35210;41.606;-87.602;2023-03-04T09:23:26;98959.38;;;3.59;83.96
49342;BME280;35210;41.606;-87.602;2023-03-04T09:25:56;98959.38;;;3.59;83.67
49342;BME280;35210;41.606;-87.602;2023-03-04T09:28:24;98959.56;;;3.56;83.79
49342;BME280;35210;41.606;-87.602;2023-03-04T09:30:52;98964.94;;;3.53;84.22
49342;BME280;35210;41.606;-87.602;2023-03-04T09:33:20;98971.84;;;3.54;84.24
49342;BME280;35210;41.606;-87.602;2023-03-04T09:35:48;98973.63;;;3.53;84.78
49342;BME280;35210;41.606;-87.602;2023-03-04T09:38:16;98967.66;;;3.51;84.73
49342;BME280;35210;41.606;-87.602;2023-03-04T09:40:45;98977.25;;;3.51;84.88
49342;BME280;35210;41.606;-87.602;2023-03-04T09:43:20;98979.09;;;3.49;84.36
49342;BME280;35210;41.606;-87.602;2023-03-04T09:45:53;98970.44;;;3.48;84.13
49342;BME280;35210;41.606;-87.602;2023-03-04T09:48:26;98977.59;;;3.45;84.93
49342;BME280;35210;41.606;-87.602;2023-03-04T09:51:05;98984.66;;;3.43;84.27
49342;BME280;35210;41.606;-87.602;2023-03-04T09:53:48;98999.56;;;3.41;84.25
49342;BME280;35210;41.606;-87.602;2023-03-04T09:56:22;99010.50;;;3.32;83.99
49342;BME280;35210;41.606;-87.602;2023-03-04T09:58:57;99014.03;;;3.30;84.38
49342;BME280;35210;41.606;-87.602;2023-03-04T10:01:32;99013.19;;;3.30;83.84
49342;BME280;35210;41.606;-87.602;2023-03-04T10:04:05;99014.88;;;3.31;84.11
49342;BME280;35210;41.606;-87.602;2023-03-04T10:06:38;99008.06;;;3.28;84.47
49342;BME280;35210;41.606;-87.602;2023-03-04T10:09:11;99017.81;;;3.25;84.56
49342;BME280;35210;41.606;-87.602;2023-03-04T10:11:43;99029.09;;;3.25;85.39
49342;BME280;35210;41.606;-87.602;2023-03-04T10:14:26;99042.31;;;3.22;85.37
49342;BME280;35210;41.606;-87.602;2023-03-04T10:17:04;99039.78;;;3.21;85.13
49342;BME280;35210;41.606;-87.602;2023-03-04T10:19:52;99050.63;;;3.13;84.67
49342;BME280;35210;41.606;-87.602;2023-03-04T10:22:26;99064.59;;;3.12;84.76
49342;BME280;35210;41.606;-87.602;2023-03-04T10:25:15;99062.91;;;3.11;85.24
49342;BME280;35210;41.606;-87.602;2023-03-04T10:27:56;99057.75;;;3.10;85.47
49342;BME280;35210;41.606;-87.602;2023-03-04T10:30:35;99075.09;;;3.11;85.25
49342;BME280;35210;41.606;-87.602;2023-03-04T10:33:11;99069.13;;;3.09;85.04
49342;BME280;35210;41.606;-87.602;2023-03-04T10:35:44;99070.81;;;3.10;84.96
49342;BME280;35210;41.606;-87.602;2023-03-04T10:38:13;99068.28;;;3.08;85.40
49342;BME280;35210;41.606;-87.602;2023-03-04T10:40:42;99069.28;;;3.06;85.33
49342;BME280;35210;41.606;-87.602;2023-03-04T10:43:17;99070.13;;;3.06;85.42
49342;BME280;35210;41.606;-87.602;2023-03-04T10:45:47;99071.97;;;3.04;85.60
49342;BME280;35210;41.606;-87.602;2023-03-04T10:48:20;99077.19;;;3.04;85.99
49342;BME280;35210;41.606;-87.602;2023-03-04T10:50:49;99084.09;;;3.05;85.11
49342;BME280;35210;41.606;-87.602;2023-03-04T10:53:32;99092.84;;;3.04;85.40
49342;BME280;35210;41.606;-87.602;2023-03-04T10:56:00;99103.25;;;3.04;85.63
49342;BME280;35210;41.606;-87.602;2023-03-04T10:58:28;99101.41;;;3.06;85.36
49342;BME280;35210;41.606;-87.602;2023-03-04T11:01:03;99109.31;;;3.05;85.49
49342;BME280;35210;41.606;-87.602;2023-03-04T11:03:34;99111.09;;;3.04;85.25
49342;BME280;35210;41.606;-87.602;2023-03-04T11:06:06;99119.84;;;3.03;85.78
49342;BME280;35210;41.606;-87.602;2023-03-04T11:08:35;99127.81;;;3.00;85.51
49342;BME280;35210;41.606;-87.602;2023-03-04T11:11:09;99130.44;;;3.00;84.91
49342;BME280;35210;41.606;-87.602;2023-03-04T11:13:50;99133.97;;;2.99;85.04
49342;BME280;35210;41.606;-87.602;2023-03-04T11:16:26;99125.41;;;2.97;85.69
49342;BME280;35210;41.606;-87.602;2023-03-04T11:18:59;99121.09;;;2.96;84.68
49342;BME280;35210;41.606;-87.602;2023-03-04T11:21:38;99130.00;;;2.92;84.92
49342;BME280;35210;41.606;-87.602;2023-03-04T11:24:13;99130.16;;;2.89;85.64
49342;BME280;35210;41.606;-87.602;2023-03-04T11:26:44;99133.69;;;2.88;85.88
49342;BME280;35210;41.606;-87.602;2023-03-04T11:29:16;99132.00;;;2.87;85.78
49342;BME280;35210;41.606;-87.602;2023-03-04T11:31:50;99137.38;;;2.84;86.16
49342;BME280;35210;41.606;-87.602;2023-03-04T11:34:32;99143.44;;;2.84;85.71
49342;BME280;35210;41.606;-87.602;2023-03-04T11:37:08;99157.38;;;2.83;86.17
49342;BME280;35210;41.606;-87.602;2023-03-04T11:39:38;99165.13;;;2.85;86.38
49342;BME280;35210;41.606;-87.602;2023-03-04T11:42:17;99167.88;;;2.82;86.29
49342;BME280;35210;41.606;-87.602;2023-03-04T11:44:48;99176.56;;;2.82;86.49
49342;BME280;35210;41.606;-87.602;2023-03-04T11:47:37;99172.50;;;2.77;86.12
49342;BME280;35210;41.606;-87.602;2023-03-04T11:50:17;99177.84;;;2.74;86.23
49342;BME280;35210;41.606;-87.602;2023-03-04T11:55:45;99202.25;;;2.73;86.62
49342;BME280;35210;41.606;-87.602;2023-03-04T12:01:49;99206.69;;;2.71;87.07
49342;BME280;35210;41.606;-87.602;2023-03-04T12:05:01;99215.34;;;2.71;86.65
49342;BME280;35210;41.606;-87.602;2023-03-04T12:07:45;99228.47;;;2.70;86.97
49342;BME280;35210;41.606;-87.602;2023-03-04T12:10:23;99224.94;;;2.71;86.53
49342;BME280;35210;41.606;-87.602;2023-03-04T12:13:18;99230.16;;;2.71;86.69
49342;BME280;35210;41.606;-87.602;2023-03-04T12:15:56;99232.69;;;2.72;86.64
49342;BME280;35210;41.606;-87.602;2023-03-04T12:18:38;99234.72;;;2.66;86.40
49342;BME280;35210;41.606;-87.602;2023-03-04T12:21:31;99232.06;;;2.67;86.88
49342;BME280;35210;41.606;-87.602;2023-03-04T12:27:07;99227.84;;;2.64;86.32
49342;BME280;35210;41.606;-87.602;2023-03-04T12:29:43;99234.09;;;2.60;85.97
49342;BME280;35210;41.606;-87.602;2023-03-04T12:32:19;99231.88;;;2.53;85.53
49342;BME280;35210;41.606;-87.602;2023-03-04T12:35:02;99231.03;;;2.52;86.30
49342;BME280;35210;41.606;-87.602;2023-03-04T12:37:50;99239.75;;;2.51;85.88
49342;BME280;35210;41.606;-87.602;2023-03-04T12:40:26;99236.22;;;2.52;86.37
49342;BME280;35210;41.606;-87.602;2023-03-04T12:43:04;99236.16;;;2.54;86.36
49342;BME280;35210;41.606;-87.602;2023-03-04T12:45:41;99231.78;;;2.54;86.20
49342;BME280;35210;41.606;-87.602;2023-03-04T12:48:22;99235.31;;;2.53;85.74
49342;BME280;35210;41.606;-87.602;2023-03-04T12:51:07;99250.03;;;2.54;86.20
49342;BME280;35210;41.606;-87.602;2023-03-04T12:53:50;99261.38;;;2.53;86.53
49342;BME280;35210;41.606;-87.602;2023-03-04T12:56:27;99255.94;;;2.58;85.82
49342;BME280;35210;41.606;-87.602;2023-03-04T12:58:58;99256.88;;;2.57;85.77
49342;BME280;35210;41.606;-87.602;2023-03-04T13:01:31;99253.41;;;2.56;85.77
49342;BME280;35210;41.606;-87.602;2023-03-04T13:04:07;99266.38;;;2.58;86.65
49342;BME280;35210;41.606;-87.602;2023-03-04T13:06:42;99280.31;;;2.57;86.69
49342;BME280;35210;41.606;-87.602;2023-03-04T13:09:23;99264.63;;;2.58;87.37
49342;BME280;35210;41.606;-87.602;2023-03-04T13:12:01;99269.53;;;2.64;87.26
49342;BME280;35210;41.606;-87.602;2023-03-04T13:14:34;99267.56;;;2.70;87.95
49342;BME280;35210;41.606;-87.602;2023-03-04T13:17:38;99272.78;;;2.70;88.41
49342;BME280;35210;41.606;-87.602;2023-03-04T13:20:34;99282.16;;;2.74;89.65